createdAt,value
2023-05-03T00:01:58.248Z,80.80
2023-05-03T00:04:31.865Z,79.30
2023-05-03T00:07:04.152Z,78.00
2023-05-03T00:09:38.808Z,77.80
2023-05-03T00:12:10.846Z,76.90
2023-05-03T00:14:42.940Z,71.80
2023-05-03T00:17:15.028Z,71.40
2023-05-03T00:19:47.654Z,72.00
2023-05-03T00:22:19.746Z,73.30
2023-05-03T00:24:54.392Z,72.00
2023-05-03T00:27:26.932Z,73.80
2023-05-03T00:29:59.057Z,71.10
2023-05-03T00:32:31.165Z,69.10
2023-05-03T00:35:03.634Z,75.20
2023-05-03T00:37:37.403Z,79.10
2023-05-03T00:40:13.533Z,67.10
2023-05-03T00:42:46.805Z,67.10
2023-05-03T00:45:19.163Z,67.00
2023-05-03T00:47:51.436Z,67.00
2023-05-03T00:50:23.606Z,67.00
2023-05-03T00:52:55.949Z,67.10
2023-05-03T00:55:32.216Z,67.20
2023-05-03T00:58:04.318Z,67.80
2023-05-03T01:00:36.399Z,67.80
2023-05-03T01:03:08.562Z,67.60
2023-05-03T01:08:28.880Z,67.40
2023-05-03T01:11:08.680Z,68.00
2023-05-03T01:13:52.417Z,68.40
2023-05-03T01:16:31.477Z,68.50
2023-05-03T01:19:13.656Z,68.80
2023-05-03T01:21:50.483Z,69.00
2023-05-03T01:24:24.190Z,69.10
2023-05-03T01:26:59.440Z,69.30
2023-05-03T01:29:31.709Z,69.40
2023-05-03T01:32:09.337Z,69.40
2023-05-03T01:34:49.355Z,69.40
2023-05-03T01:37:22.700Z,69.40
2023-05-03T01:39:59.830Z,69.20
2023-05-03T01:42:36.842Z,69.10
2023-05-03T01:45:11.202Z,69.20
2023-05-03T01:47:43.314Z,69.10
2023-05-03T01:50:15.697Z,69.50
2023-05-03T01:52:47.887Z,69.00
2023-05-03T01:55:19.948Z,68.90
2023-05-03T01:57:54.644Z,68.90
2023-05-03T02:00:27.112Z,72.00
2023-05-03T02:02:59.233Z,77.50
2023-05-03T02:05:31.466Z,81.30
2023-05-03T02:08:03.819Z,80.70
2023-05-03T02:10:35.898Z,79.20
2023-05-03T02:13:10.650Z,74.80
2023-05-03T02:15:42.738Z,70.80
2023-05-03T02:18:16.594Z,72.30
2023-05-03T02:20:48.685Z,80.00
2023-05-03T02:23:21.136Z,83.60
2023-05-03T02:25:53.182Z,85.30
2023-05-03T02:28:27.892Z,82.80
2023-05-03T02:31:00.234Z,79.40
2023-05-03T02:33:32.353Z,78.20
2023-05-03T02:36:05.123Z,77.80
2023-05-03T02:38:37.270Z,77.40
2023-05-03T02:41:09.410Z,77.10
2023-05-03T02:43:44.090Z,77.20
2023-05-03T02:46:16.188Z,76.40
2023-05-03T02:48:48.317Z,71.20
2023-05-03T02:51:20.962Z,71.20
2023-05-03T02:53:53.051Z,71.10
2023-05-03T02:56:26.705Z,71.20
2023-05-03T02:59:01.578Z,71.30
2023-05-03T03:01:34.250Z,71.60
2023-05-03T03:04:06.656Z,72.10
2023-05-03T03:06:38.874Z,72.60
2023-05-03T03:09:10.962Z,73.80
2023-05-03T03:11:43.036Z,74.80
2023-05-03T03:14:18.014Z,75.90
2023-05-03T03:16:51.647Z,79.00
2023-05-03T03:19:23.967Z,80.50
2023-05-03T03:21:56.371Z,80.70
2023-05-03T03:24:28.448Z,81.20
2023-05-03T03:27:00.640Z,81.90
2023-05-03T03:29:35.898Z,83.10
2023-05-03T03:32:08.027Z,84.60
2023-05-03T03:34:40.079Z,88.20
2023-05-03T03:37:12.111Z,91.80
2023-05-03T03:44:54.361Z,94.20
2023-05-03T03:47:27.130Z,90.00
2023-05-03T03:50:00.058Z,90.60
2023-05-03T03:52:32.144Z,90.50
2023-05-03T03:55:04.866Z,91.30
2023-05-03T03:57:36.918Z,90.70
2023-05-03T04:00:13.251Z,93.00
2023-05-03T04:12:57.762Z,92.30
2023-05-03T04:15:32.164Z,91.70
2023-05-03T04:18:04.328Z,91.10
2023-05-03T04:20:36.940Z,91.20
2023-05-03T04:23:09.023Z,90.20
2023-05-03T04:25:46.817Z,89.80
2023-05-03T04:28:19.444Z,88.10
2023-05-03T04:30:54.188Z,88.00
2023-05-03T04:33:27.489Z,88.40
2023-05-03T04:36:02.044Z,90.10
2023-05-03T04:38:34.275Z,90.60
2023-05-03T04:41:06.741Z,90.60
2023-05-03T04:43:46.337Z,90.70
2023-05-03T04:46:26.049Z,91.00
2023-05-03T04:48:58.176Z,84.50
2023-05-03T04:51:30.311Z,85.70
2023-05-03T04:54:02.345Z,86.70
2023-05-03T04:56:35.873Z,87.20
2023-05-03T04:59:08.744Z,87.40
2023-05-03T05:01:43.393Z,87.80
2023-05-03T05:04:15.496Z,87.80
2023-05-03T05:06:51.366Z,88.10
2023-05-03T05:09:24.696Z,88.10
2023-05-03T05:11:57.505Z,88.10
2023-05-03T05:14:31.311Z,88.30
2023-05-03T05:17:05.992Z,88.50
2023-05-03T05:19:41.982Z,88.80
2023-05-03T05:22:14.116Z,89.00
2023-05-03T05:24:46.154Z,88.30
2023-05-03T05:27:18.277Z,88.20
2023-05-03T05:29:50.408Z,88.40
2023-05-03T05:32:25.068Z,88.70
2023-05-03T05:34:57.108Z,88.60
2023-05-03T05:37:29.164Z,88.80
2023-05-03T05:40:01.652Z,89.00
2023-05-03T05:42:33.987Z,89.40
2023-05-03T05:45:09.874Z,89.90
2023-05-03T05:47:44.538Z,90.00
2023-05-03T05:50:18.796Z,90.10
2023-05-03T05:52:53.275Z,90.10
2023-05-03T05:55:25.450Z,90.30
2023-05-03T05:57:57.483Z,90.50
2023-05-03T06:00:30.680Z,90.70
2023-05-03T06:03:05.416Z,90.90
2023-05-03T06:05:37.607Z,91.00
2023-05-03T06:08:11.102Z,91.90
2023-05-03T06:10:43.189Z,92.40
2023-05-03T06:13:15.283Z,92.80
2023-05-03T06:15:47.373Z,93.60
2023-05-03T06:18:22.043Z,94.90
2023-05-03T06:20:54.087Z,95.50
2023-05-03T06:23:28.232Z,95.20
2023-05-03T06:26:00.262Z,93.20
2023-05-03T06:28:32.332Z,94.10
2023-05-03T06:31:04.524Z,95.10
2023-05-03T06:33:39.177Z,94.40
2023-05-03T06:36:11.173Z,93.80
2023-05-03T06:38:44.043Z,93.60
2023-05-03T06:41:16.184Z,93.70
2023-05-03T06:43:48.227Z,93.90
2023-05-03T06:46:20.627Z,94.10
2023-05-03T06:48:58.179Z,94.40
2023-05-03T06:51:32.434Z,96.00
2023-05-03T06:54:10.155Z,96.10
2023-05-03T06:56:42.225Z,95.70
2023-05-03T06:59:14.299Z,95.20
2023-05-03T07:01:47.290Z,95.20
2023-05-03T07:04:22.012Z,95.20
2023-05-03T07:06:56.738Z,95.10
2023-05-03T07:09:42.116Z,95.40
2023-05-03T07:12:16.590Z,95.40
2023-05-03T07:14:48.727Z,95.30
2023-05-03T07:17:22.029Z,95.40
2023-05-03T07:19:57.900Z,95.30
2023-05-03T07:22:29.924Z,95.40
2023-05-03T07:25:02.148Z,95.40
2023-05-03T07:27:34.294Z,95.70
2023-05-03T07:30:08.223Z,95.80
2023-05-03T07:32:40.418Z,95.80
2023-05-03T07:35:15.603Z,95.90
2023-05-03T07:37:47.648Z,96.00
2023-05-03T07:40:19.764Z,95.60
2023-05-03T07:42:51.949Z,95.80
2023-05-03T07:45:24.023Z,95.70
2023-05-03T07:47:59.279Z,95.80
2023-05-03T07:50:37.190Z,95.80
2023-05-03T07:53:09.311Z,95.60
2023-05-03T07:55:41.727Z,95.60
2023-05-03T07:58:13.792Z,95.80
2023-05-03T08:00:46.055Z,95.80
2023-05-03T08:03:18.280Z,96.00
2023-05-03T08:05:53.134Z,96.20
2023-05-03T08:08:25.255Z,96.40
2023-05-03T08:10:57.294Z,96.10
2023-05-03T08:13:29.317Z,96.20
2023-05-03T08:16:01.512Z,96.10
2023-05-03T08:18:33.549Z,96.00
2023-05-03T08:21:10.564Z,95.90
2023-05-03T08:23:43.231Z,96.10
2023-05-03T08:26:15.753Z,96.00
2023-05-03T08:28:47.937Z,95.40
2023-05-03T08:31:20.153Z,95.10
2023-05-03T08:33:52.233Z,95.10
2023-05-03T08:36:26.994Z,95.10
2023-05-03T08:38:59.227Z,95.10
2023-05-03T08:41:32.038Z,95.40
2023-05-03T08:44:05.701Z,95.30
2023-05-03T08:46:38.486Z,95.40
2023-05-03T08:49:12.759Z,95.70
2023-05-03T08:51:49.774Z,95.80
2023-05-03T08:54:22.216Z,95.90
2023-05-03T08:56:54.276Z,95.90
2023-05-03T08:59:27.612Z,95.90
2023-05-03T09:02:00.404Z,94.30
2023-05-03T09:04:34.860Z,92.30
2023-05-03T09:07:13.535Z,92.10
2023-05-03T09:09:47.252Z,92.00
2023-05-03T09:12:36.320Z,91.90
2023-05-03T09:15:17.001Z,91.80
2023-05-03T09:18:07.724Z,91.70
2023-05-03T09:20:42.016Z,91.70
2023-05-03T09:23:17.162Z,91.80
2023-05-03T09:25:51.617Z,91.90
2023-05-03T09:28:24.037Z,92.10
2023-05-03T09:31:11.420Z,92.10
2023-05-03T09:33:44.895Z,92.10
2023-05-03T09:36:17.773Z,92.10
2023-05-03T09:38:52.795Z,92.20
2023-05-03T09:41:29.146Z,92.40
2023-05-03T09:44:03.187Z,92.70
2023-05-03T09:46:35.572Z,92.70
2023-05-03T09:49:07.738Z,92.90
2023-05-03T09:51:41.788Z,92.90
2023-05-03T09:54:16.900Z,92.90
2023-05-03T09:56:49.570Z,93.00
2023-05-03T09:59:21.656Z,93.00
2023-05-03T10:01:58.895Z,92.90
2023-05-03T10:04:39.838Z,93.00
2023-05-03T10:07:14.896Z,93.20
2023-05-03T10:09:49.921Z,93.90
2023-05-03T10:12:22.518Z,94.40
2023-05-03T10:14:57.036Z,95.30
2023-05-03T10:17:47.315Z,92.90
2023-05-03T10:20:27.340Z,93.00
2023-05-03T10:26:19.921Z,97.20
2023-05-03T10:28:52.076Z,94.00
2023-05-03T10:31:45.772Z,93.80
2023-05-03T10:34:22.142Z,92.90
2023-05-03T10:36:54.546Z,91.80
2023-05-03T10:39:28.797Z,84.10
2023-05-03T10:42:04.767Z,85.20
2023-05-03T10:44:40.635Z,83.30
2023-05-03T10:47:14.083Z,82.50
2023-05-03T10:49:46.417Z,82.30
2023-05-03T10:52:45.678Z,82.00
2023-05-03T10:55:20.901Z,81.70
2023-05-03T10:57:58.729Z,80.80
2023-05-03T11:00:37.179Z,80.60
2023-05-03T11:03:41.474Z,80.20
2023-05-03T11:06:28.414Z,78.30
2023-05-03T11:09:00.993Z,77.90
2023-05-03T11:11:33.700Z,77.50
2023-05-03T11:14:09.447Z,77.40
2023-05-03T11:16:48.265Z,77.50
2023-05-03T11:19:21.137Z,77.60
2023-05-03T11:21:53.438Z,77.50
2023-05-03T11:24:25.737Z,78.10
2023-05-03T11:26:57.867Z,77.70
2023-05-03T11:29:32.867Z,77.90
2023-05-03T11:32:08.158Z,77.90
2023-05-03T11:34:40.801Z,80.20
2023-05-03T11:37:17.103Z,78.60
2023-05-03T11:39:49.157Z,80.60
2023-05-03T11:42:21.446Z,78.20
2023-05-03T11:44:59.139Z,82.10
2023-05-03T11:47:31.276Z,73.40
2023-05-03T11:50:04.075Z,73.40
2023-05-03T11:52:37.651Z,79.60
2023-05-03T11:55:11.216Z,79.30
2023-05-03T11:57:43.522Z,68.30
2023-05-03T12:00:22.979Z,67.50
2023-05-03T12:02:55.234Z,73.10
2023-05-03T12:05:27.437Z,66.60
2023-05-03T12:08:01.290Z,66.60
2023-05-03T12:10:35.703Z,77.60
2023-05-03T12:13:14.163Z,70.30
2023-05-03T12:16:11.047Z,64.30
2023-05-03T12:18:52.583Z,62.20
2023-05-03T12:21:47.289Z,60.80
2023-05-03T12:24:28.853Z,60.30
2023-05-03T12:27:04.411Z,81.10
2023-05-03T12:29:36.488Z,84.80
2023-05-03T12:32:13.478Z,57.90
2023-05-03T12:34:47.030Z,57.30
2023-05-03T12:40:16.542Z,55.10
2023-05-03T12:42:46.766Z,55.30
2023-05-03T12:45:21.290Z,54.90
2023-05-03T12:47:58.938Z,54.70
2023-05-03T12:50:32.161Z,61.50
2023-05-03T12:53:08.440Z,53.40
2023-05-03T12:55:43.918Z,52.80
2023-05-03T13:06:13.299Z,50.30
2023-05-03T13:08:50.207Z,50.40
2023-05-03T13:11:25.050Z,49.90
2023-05-03T13:14:00.006Z,48.30
2023-05-03T13:16:32.542Z,48.60
2023-05-03T13:19:07.655Z,48.40
2023-05-03T13:21:39.880Z,47.90
2023-05-03T13:24:14.646Z,47.40
2023-05-03T13:26:47.161Z,46.60
2023-05-03T13:29:19.211Z,46.00
2023-05-03T13:31:55.286Z,45.80
2023-05-03T13:34:29.992Z,45.60
2023-05-03T13:37:02.448Z,45.60
2023-05-03T13:39:40.059Z,45.30
2023-05-03T13:49:45.730Z,44.40
2023-05-03T14:02:15.834Z,44.30
2023-05-03T14:03:35.168Z,44.00
2023-05-03T14:07:55.101Z,43.80
2023-05-03T14:10:00.725Z,43.70
2023-05-03T14:12:36.752Z,43.30
2023-05-03T14:15:09.759Z,43.30
2023-05-03T14:17:43.764Z,42.90
2023-05-03T14:20:17.772Z,42.90
2023-05-03T14:22:50.889Z,42.90
2023-05-03T14:25:26.511Z,43.30
2023-05-03T14:27:59.761Z,42.80
2023-05-03T14:30:32.732Z,42.70
2023-05-03T14:33:05.264Z,43.30
2023-05-03T14:35:40.240Z,43.20
2023-05-03T14:38:12.377Z,42.50
2023-05-03T14:40:54.092Z,42.50
2023-05-03T14:43:26.208Z,44.00
2023-05-03T14:45:58.285Z,42.70
2023-05-03T14:48:30.763Z,43.50
2023-05-03T14:51:02.779Z,43.50
2023-05-03T14:53:35.834Z,42.60
2023-05-03T14:56:13.682Z,43.60
2023-05-03T14:58:45.742Z,42.80
2023-05-03T15:01:18.657Z,43.00
2023-05-03T15:03:50.823Z,43.30
2023-05-03T15:06:24.555Z,43.00
2023-05-03T15:08:56.981Z,44.40
2023-05-03T15:11:31.618Z,43.10
2023-05-03T15:14:03.761Z,43.20
2023-05-03T15:16:37.306Z,43.20
2023-05-03T15:19:09.587Z,43.20
2023-05-03T15:21:46.175Z,43.20
2023-05-03T15:24:18.596Z,43.20
2023-05-03T15:26:53.317Z,43.20
2023-05-03T15:29:25.462Z,43.10
2023-05-03T15:31:57.505Z,43.10
2023-05-03T15:34:29.827Z,43.10
2023-05-03T15:37:01.949Z,43.00
2023-05-03T15:39:34.049Z,43.00
2023-05-03T15:42:08.950Z,43.10
2023-05-03T15:44:41.084Z,42.90
2023-05-03T15:47:13.199Z,42.80
2023-05-03T15:49:45.363Z,42.70
2023-05-03T15:52:17.408Z,42.90
2023-05-03T15:54:49.450Z,42.90
2023-05-03T15:57:24.644Z,42.90
2023-05-03T15:59:56.834Z,42.80
2023-05-03T16:02:28.902Z,43.40
2023-05-03T16:05:01.188Z,42.70
2023-05-03T16:07:33.230Z,42.80
2023-05-03T16:10:06.920Z,42.80
2023-05-03T16:12:42.918Z,43.20
2023-05-03T16:15:16.463Z,42.90
2023-05-03T16:17:49.519Z,42.90
2023-05-03T16:20:21.784Z,42.80
2023-05-03T16:22:54.067Z,42.80
2023-05-03T16:25:26.659Z,42.90
2023-05-03T16:28:03.282Z,43.00
2023-05-03T16:30:35.591Z,43.20
2023-05-03T16:33:08.149Z,43.20
2023-05-03T16:35:41.666Z,43.20
2023-05-03T16:38:13.799Z,43.10
2023-05-03T16:40:46.468Z,43.10
2023-05-03T16:43:21.214Z,43.10
2023-05-03T16:45:57.127Z,43.10
2023-05-03T16:48:30.218Z,43.20
2023-05-03T16:51:02.509Z,43.20
2023-05-03T16:53:34.677Z,43.30
2023-05-03T16:56:07.049Z,43.40
2023-05-03T16:58:41.749Z,44.50
2023-05-03T17:01:14.611Z,43.40
2023-05-03T17:03:46.896Z,43.50
2023-05-03T17:06:19.870Z,43.70
2023-05-03T17:08:51.924Z,43.80
2023-05-03T17:11:24.033Z,43.80
2023-05-03T17:14:00.878Z,43.80
2023-05-03T17:16:33.090Z,43.80
2023-05-03T17:19:05.248Z,44.00
2023-05-03T17:21:37.635Z,43.90
2023-05-03T17:24:09.749Z,44.00
2023-05-03T17:26:41.840Z,44.10
2023-05-03T17:29:16.843Z,44.10
2023-05-03T17:31:49.190Z,44.10
2023-05-03T17:34:22.505Z,44.00
2023-05-03T17:36:57.691Z,44.00
2023-05-03T17:39:29.821Z,44.10
2023-05-03T17:42:01.987Z,44.10
2023-05-03T17:44:36.852Z,44.20
2023-05-03T17:47:10.418Z,44.20
2023-05-03T17:49:42.580Z,44.30
2023-05-03T17:52:14.653Z,44.70
2023-05-03T17:54:47.116Z,44.60
2023-05-03T17:57:22.179Z,44.70
2023-05-03T17:59:56.816Z,44.70
2023-05-03T18:02:30.116Z,44.80
2023-05-03T18:05:02.986Z,44.80
2023-05-03T18:07:35.222Z,44.80
2023-05-03T18:10:09.859Z,44.90
2023-05-03T18:12:42.038Z,44.90
2023-05-03T18:15:17.867Z,47.40
2023-05-03T18:17:49.980Z,51.00
2023-05-03T18:20:22.340Z,57.30
2023-05-03T18:22:54.442Z,53.80
2023-05-03T18:25:26.639Z,45.60
2023-05-03T18:27:58.750Z,45.70
2023-05-03T18:30:33.531Z,45.90
2023-05-03T18:33:06.544Z,46.00
2023-05-03T18:35:39.152Z,46.10
2023-05-03T18:38:11.221Z,46.20
2023-05-03T18:40:46.016Z,46.30
2023-05-03T18:43:18.151Z,46.40
2023-05-03T18:45:52.909Z,46.60
2023-05-03T18:48:25.078Z,64.10
2023-05-03T18:51:02.303Z,64.10
2023-05-03T18:53:34.667Z,65.90
2023-05-03T18:56:06.829Z,53.50
2023-05-03T18:58:38.955Z,51.70
2023-05-03T19:01:13.850Z,52.00
2023-05-03T19:03:46.100Z,54.40
2023-05-03T19:06:18.968Z,69.10
2023-05-03T19:08:51.126Z,54.30
2023-05-03T19:11:25.128Z,55.30
2023-05-03T19:13:57.390Z,57.00
2023-05-03T19:16:33.324Z,74.50
2023-05-03T19:19:05.453Z,62.00
2023-05-03T19:21:42.161Z,58.60
2023-05-03T19:24:15.370Z,52.40
2023-05-03T19:26:47.466Z,55.20
2023-05-03T19:29:19.639Z,57.60
2023-05-03T19:31:57.927Z,76.80
2023-05-03T19:34:30.028Z,52.70
2023-05-03T19:37:02.261Z,52.90
2023-05-03T19:39:37.861Z,54.60
2023-05-03T19:42:09.921Z,60.90
2023-05-03T19:44:42.023Z,53.20
2023-05-03T19:47:17.014Z,53.10
2023-05-03T19:49:49.113Z,53.90
2023-05-03T19:52:21.283Z,56.30
2023-05-03T19:54:53.378Z,58.80
2023-05-03T19:57:25.904Z,64.90
2023-05-03T19:59:57.955Z,57.40
2023-05-03T20:02:32.759Z,57.70
2023-05-03T20:05:05.956Z,58.80
2023-05-03T20:07:38.047Z,60.10
2023-05-03T20:12:42.978Z,58.80
2023-05-03T20:15:15.327Z,50.80
2023-05-03T20:17:50.032Z,51.00
2023-05-03T20:20:22.198Z,51.20
2023-05-03T20:22:54.368Z,51.30
2023-05-03T20:25:26.668Z,71.80
2023-05-03T20:27:58.771Z,75.20
2023-05-03T20:30:31.930Z,75.90
2023-05-03T20:33:06.789Z,77.20
2023-05-03T20:35:39.156Z,76.80
2023-05-03T20:38:11.564Z,79.40
